createdAt,value
2023-01-05T00:06:57.387Z,7.10
2023-01-05T00:17:21.975Z,7.00
2023-01-05T00:27:25.503Z,6.90
2023-01-05T00:37:33.992Z,6.90
2023-01-05T00:47:37.485Z,6.70
2023-01-05T00:57:42.621Z,6.70
2023-01-05T01:07:48.717Z,6.80
2023-01-05T01:17:53.608Z,6.80
2023-01-05T01:27:57.188Z,6.80
2023-01-05T01:38:02.040Z,6.80
2023-01-05T01:48:06.911Z,6.80
2023-01-05T01:58:17.976Z,6.80
2023-01-05T02:08:31.407Z,6.90
2023-01-05T02:18:54.254Z,7.00
2023-01-05T02:29:25.119Z,7.30
2023-01-05T02:39:40.378Z,7.50
2023-01-05T02:49:44.062Z,7.50
2023-01-05T02:59:53.579Z,7.70
2023-01-05T03:10:19.397Z,7.60
2023-01-05T03:20:28.567Z,7.70
2023-01-05T03:30:59.246Z,7.70
2023-01-05T03:41:10.302Z,7.90
2023-01-05T03:51:17.899Z,7.90
2023-01-05T04:01:24.521Z,7.90
2023-01-05T04:11:29.631Z,8.10
2023-01-05T04:21:42.083Z,8.30
2023-01-05T04:31:46.511Z,8.40
2023-01-05T04:41:51.806Z,8.40
2023-01-05T04:51:57.331Z,8.30
2023-01-05T05:02:03.347Z,8.30
2023-01-05T05:12:09.564Z,8.20
2023-01-05T05:22:15.785Z,8.30
2023-01-05T05:32:19.685Z,8.50
2023-01-05T05:42:24.637Z,8.30
2023-01-05T05:52:28.116Z,8.20
2023-01-05T06:02:33.093Z,8.00
2023-01-05T06:12:36.741Z,7.90
2023-01-05T06:22:41.761Z,7.80
2023-01-05T06:32:45.216Z,7.90
2023-01-05T06:42:50.215Z,7.70
2023-01-05T06:52:53.690Z,7.60
2023-01-05T07:02:58.622Z,7.30
2023-01-05T07:13:02.109Z,7.20
2023-01-05T07:23:06.951Z,7.20
2023-01-05T07:33:10.440Z,7.50
2023-01-05T07:43:16.503Z,7.20
2023-01-05T07:53:20.042Z,7.10
2023-01-05T08:03:25.387Z,6.90
2023-01-05T08:13:46.272Z,6.80
2023-01-05T08:23:53.277Z,6.70
2023-01-05T08:33:57.955Z,6.60
2023-01-05T08:44:05.971Z,6.60
2023-01-05T08:54:09.403Z,6.60
2023-01-05T09:04:14.229Z,6.60
2023-01-05T09:14:18.838Z,6.50
2023-01-05T09:24:23.776Z,6.40
2023-01-05T09:34:27.282Z,7.00
2023-01-05T09:44:36.416Z,7.30
2023-01-05T09:54:41.047Z,12.90
2023-01-05T10:04:47.265Z,11.80
2023-01-05T10:14:56.060Z,9.60
2023-01-05T10:25:07.230Z,9.10
2023-01-05T10:35:59.553Z,9.40
2023-01-05T10:46:29.912Z,9.20
2023-01-05T10:56:28.704Z,9.60
2023-01-05T11:06:37.027Z,9.90
2023-01-05T11:16:40.571Z,9.70
2023-01-05T11:26:52.931Z,9.10
2023-01-05T11:37:03.945Z,9.10
2023-01-05T11:47:23.206Z,8.80
2023-01-05T11:57:27.096Z,8.60
2023-01-05T12:07:36.174Z,8.50
2023-01-05T12:17:55.674Z,8.70
2023-01-05T12:28:42.275Z,8.30
2023-01-05T12:38:57.181Z,8.30
2023-01-05T12:49:07.066Z,8.20
2023-01-05T12:59:18.689Z,8.30
2023-01-05T13:09:27.944Z,8.40
2023-01-05T13:19:36.016Z,8.10
2023-01-05T13:29:47.344Z,8.10
2023-01-05T13:40:15.626Z,8.60
2023-01-05T13:50:43.132Z,9.00
2023-01-05T14:00:53.904Z,8.60
2023-01-05T14:11:15.065Z,7.30
2023-01-05T14:22:00.858Z,7.10
2023-01-05T14:32:09.518Z,5.90
2023-01-05T14:42:28.728Z,5.40
2023-01-05T14:52:57.152Z,5.20
2023-01-05T15:03:12.045Z,5.40
2023-01-05T15:14:20.900Z,5.60
2023-01-05T15:25:02.947Z,5.30
2023-01-05T15:35:18.023Z,5.10
2023-01-05T15:45:30.704Z,5.30
2023-01-05T15:55:35.660Z,5.30
2023-01-05T16:05:39.328Z,5.50
2023-01-05T16:15:49.113Z,5.40
2023-01-05T16:25:57.661Z,5.60
2023-01-05T16:36:20.856Z,5.90
2023-01-05T16:46:40.128Z,6.00
2023-01-05T16:56:58.370Z,6.10
2023-01-05T17:07:02.161Z,6.40
2023-01-05T17:17:07.394Z,6.20
2023-01-05T17:37:21.841Z,5.50
2023-01-05T17:47:25.388Z,5.40
2023-01-05T17:57:30.283Z,5.40
2023-01-05T18:07:34.363Z,5.40
2023-01-05T18:17:39.561Z,5.60
2023-01-05T18:27:43.774Z,5.40
2023-01-05T18:37:51.265Z,5.40
2023-01-05T18:47:58.744Z,5.50
2023-01-05T18:58:03.697Z,5.50
2023-01-05T19:08:07.503Z,5.30
2023-01-05T19:18:12.468Z,5.30
2023-01-05T19:28:15.995Z,5.60
2023-01-05T19:38:20.841Z,5.60
2023-01-05T19:48:24.348Z,5.50
2023-01-05T19:58:29.603Z,5.80
2023-01-05T20:08:34.310Z,5.60
2023-01-05T20:18:40.306Z,5.50
2023-01-05T20:28:44.933Z,5.40
2023-01-05T20:38:50.957Z,5.10
2023-01-05T20:48:55.496Z,5.00
2023-01-05T20:59:01.561Z,4.90
2023-01-05T21:09:06.734Z,4.80
2023-01-05T21:19:17.623Z,4.80
2023-01-05T21:29:23.282Z,4.50
2023-01-05T21:39:28.606Z,4.50
2023-01-05T21:49:32.264Z,4.00
2023-01-05T21:59:37.140Z,3.90
2023-01-05T22:09:40.602Z,3.80
2023-01-05T22:19:45.411Z,3.90
2023-01-05T22:29:48.963Z,3.90
2023-01-05T22:39:53.924Z,2.90
2023-01-05T22:49:57.318Z,2.90
2023-01-05T23:00:03.620Z,3.40
2023-01-05T23:10:08.460Z,3.50
2023-01-05T23:20:14.447Z,3.40
2023-01-05T23:30:17.994Z,3.50
2023-01-05T23:40:22.904Z,3.50
2023-01-05T23:50:26.372Z,3.80
